Cowiche, Washington
Current Conditions -  °F | °C
As of 12:32 PM on Thursday 29 Jan 2015 (Local Time) from KYKM Reporting Station
Overcast Overcast  
Wind Chill: 38°   Ceiling: 1000
Heat Index: 38°   Visibility: 10mi
Dew Point: 33°   Wind: 0mph
Humidity: 83%   Direction: NA
Pressure: 30.45"   Gusts: NA
Location:  46.67°N, 120.71°W
Report Text: KYKM 292032Z 00000KT 10SM OVC010 03/01 A3045 RMK AO2 CIG 008V012 T00330006
Loading
Personal Weather Stations






























Interactive Weather Map New forecast layout! Learn more

10-Day Weather Forecast

Advertisements
Track Severe Weather on mobile